Terminal Aerodrome Forecast
Issued by NWS Cleveland, OH

Home | Current Version | Previous Version | Graphics & Text | Print | Product List | Glossary On
Versions: 1 2 3 4 5 6 7 8 9 10 11 12 13 14 15 16 17 18 19 20 21 22 23 24 25 26 27
739
FTUS41 KCLE 252056 AAA
TAFTOL
TAF AMD
KTOL 252056Z 2521/2618 33010KT 4SM -RA BR BKN006 OVC015
      TEMPO 2521/2524 2SM -RA BR SCT006 OVC015
     FM260000 29007KT P6SM OVC009
     FM261400 27007KT P6SM OVC015
     FM261700 25007KT P6SM SCT015 BKN120=

USA.gov is the U.S. government's official web portal to all federal, state and local government web resources and services.